Time;durP1;ratioP1;P1;durP2;ratioP2;P2;SDS_P1;SDS_P2;PMS_P1;PMS_P2;Temp;Humidity;BMP_temperature;BMP_pressure;BME280_temperature;BME280_humidity;BME280_pressure;Samples;Min_cycle;Max_cycle;Signal;HPM_P1;HPM_P2
2022/10/29 00:01:25;;;;;;;11.50;9.60;;;13.30;99.90;;;;;;6225895;28;20479;-59
2022/10/29 00:04:28;;;;;;;11.60;10.30;;;13.30;99.90;;;;;;6225322;28;20479;-61
2022/10/29 00:07:31;;;;;;;11.33;9.20;;;13.30;99.90;;;;;;6225427;28;20526;-61
2022/10/29 00:10:35;;;;;;;14.70;10.30;;;13.30;99.90;;;;;;6225059;28;20495;-60
2022/10/29 00:13:40;;;;;;;9.93;8.93;;;13.20;99.90;;;;;;6225213;28;21413;-60
2022/10/29 00:16:43;;;;;;;10.57;9.47;;;13.20;99.90;;;;;;6225124;28;20472;-58
2022/10/29 00:19:46;;;;;;;12.47;10.80;;;13.30;99.90;;;;;;6224606;28;20814;-59
2022/10/29 00:22:52;;;;;;;14.37;11.37;;;13.30;99.90;;;;;;6224818;28;20960;-60
2022/10/29 00:25:57;;;;;;;11.57;10.37;;;13.30;99.90;;;;;;6224825;28;20483;-57
2022/10/29 00:29:01;;;;;;;14.10;10.70;;;13.40;99.90;;;;;;6224869;28;20956;-59
2022/10/29 00:32:05;;;;;;;15.63;10.00;;;13.40;99.90;;;;;;6224423;28;20483;-60
2022/10/29 00:35:09;;;;;;;14.63;9.70;;;13.40;99.90;;;;;;6224715;28;20448;-60
2022/10/29 00:38:12;;;;;;;13.70;10.67;;;13.40;99.90;;;;;;6225159;28;20472;-60
2022/10/29 00:41:17;;;;;;;10.40;9.30;;;13.40;99.90;;;;;;6225133;28;20455;-60
2022/10/29 00:44:31;;;;;;;19.60;11.17;;;13.40;99.90;;;;;;6225070;28;20488;-60
2022/10/29 00:47:36;;;;;;;16.40;10.10;;;13.40;99.90;;;;;;6212149;28;20814;-58
2022/10/29 00:50:39;;;;;;;16.40;10.33;;;13.40;99.90;;;;;;6210340;28;20469;-59
2022/10/29 00:53:46;;;;;;;16.70;11.10;;;13.40;99.90;;;;;;6203137;28;20484;-61
2022/10/29 00:56:53;;;;;;;12.20;10.27;;;13.40;99.90;;;;;;6200276;28;20485;-61
2022/10/29 00:59:58;;;;;;;19.10;10.57;;;13.40;99.90;;;;;;6200119;28;20970;-60
2022/10/29 01:03:01;;;;;;;13.03;10.30;;;13.40;99.90;;;;;;6199936;28;20472;-59
2022/10/29 01:06:06;;;;;;;9.77;8.77;;;13.30;99.90;;;;;;6200421;28;20488;-59
2022/10/29 01:09:09;;;;;;;23.03;10.07;;;13.30;99.90;;;;;;6200580;28;20468;-59
2022/10/29 01:12:28;;;;;;;13.00;10.60;;;13.30;99.90;;;;;;6200108;28;20480;-60
2022/10/29 01:15:40;;;;;;;20.37;12.50;;;13.30;99.90;;;;;;6200410;28;20476;-59
2022/10/29 01:18:53;;;;;;;17.53;12.40;;;13.30;99.90;;;;;;6200367;28;20473;-59
2022/10/29 01:22:00;;;;;;;12.70;11.23;;;13.30;99.90;;;;;;6200324;28;20512;-60
2022/10/29 01:25:33;;;;;;;14.80;10.93;;;13.30;99.90;;;;;;6200372;28;20488;-59
2022/10/29 01:28:48;;;;;;;16.80;12.17;;;13.30;99.90;;;;;;6199500;28;20539;-59
2022/10/29 01:32:01;;;;;;;17.33;12.00;;;13.30;99.90;;;;;;6215040;28;20480;-59
2022/10/29 01:35:11;;;;;;;28.73;13.40;;;13.30;99.90;;;;;;6223999;28;20578;-59
2022/10/29 01:38:22;;;;;;;17.30;13.07;;;13.30;99.90;;;;;;6224033;28;20526;-59
2022/10/29 01:41:31;;;;;;;16.43;11.53;;;13.30;99.90;;;;;;6223739;28;20506;-58
2022/10/29 01:44:42;;;;;;;13.80;11.83;;;13.30;99.90;;;;;;6227354;28;20475;-59
2022/10/29 01:47:54;;;;;;;18.20;12.17;;;13.40;99.90;;;;;;6230729;28;20534;-60
2022/10/29 01:51:00;;;;;;;18.50;12.27;;;13.40;99.90;;;;;;6234135;28;20490;-59
2022/10/29 01:54:08;;;;;;;17.23;11.60;;;13.40;99.90;;;;;;6228738;28;20490;-59
2022/10/29 01:57:29;;;;;;;16.50;11.03;;;13.40;99.90;;;;;;6228087;28;20484;-59
2022/10/29 02:00:40;;;;;;;12.57;10.97;;;13.40;99.90;;;;;;6224078;28;20480;-60
2022/10/29 02:03:53;;;;;;;15.20;10.80;;;13.40;99.90;;;;;;6228134;28;20942;-59
2022/10/29 02:07:02;;;;;;;12.20;10.90;;;13.40;99.90;;;;;;6228106;28;20475;-59
2022/10/29 02:10:13;;;;;;;15.73;11.30;;;13.30;99.90;;;;;;6227855;28;20775;-59
2022/10/29 02:13:18;;;;;;;21.10;11.17;;;13.30;99.90;;;;;;6227834;28;20542;-59
2022/10/29 02:16:22;;;;;;;12.40;10.53;;;13.30;99.90;;;;;;6227576;28;20471;-59
2022/10/29 02:19:31;;;;;;;19.43;11.90;;;13.30;99.90;;;;;;6227841;28;20506;-59
2022/10/29 02:22:34;;;;;;;18.83;11.70;;;13.30;99.90;;;;;;6227603;28;20465;-59
2022/10/29 02:25:37;;;;;;;15.20;12.40;;;13.30;99.90;;;;;;6227585;28;20482;-59
2022/10/29 02:28:40;;;;;;;15.63;11.13;;;13.20;99.90;;;;;;6227308;28;20483;-59
2022/10/29 02:31:43;;;;;;;19.37;13.03;;;13.30;99.90;;;;;;6227365;28;20927;-59
2022/10/29 02:34:48;;;;;;;18.10;11.63;;;13.20;99.90;;;;;;6227520;28;20790;-58
2022/10/29 02:37:52;;;;;;;14.10;11.97;;;13.20;99.90;;;;;;6227158;28;20479;-59
2022/10/29 02:40:55;;;;;;;15.20;12.80;;;13.20;99.90;;;;;;6227431;28;20850;-58
2022/10/29 02:43:58;;;;;;;14.20;11.60;;;13.20;99.90;;;;;;6226893;28;20879;-57
2022/10/29 02:47:01;;;;;;;18.43;13.10;;;13.20;99.90;;;;;;6247435;28;20552;-60
2022/10/29 02:50:07;;;;;;;16.90;13.80;;;13.20;99.90;;;;;;6252131;28;20446;-60
2022/10/29 02:53:10;;;;;;;13.90;12.17;;;13.20;99.90;;;;;;6251666;28;20498;-58
2022/10/29 02:56:13;;;;;;;16.00;12.90;;;13.20;99.90;;;;;;6252104;28;20470;-57
2022/10/29 02:59:16;;;;;;;12.93;11.07;;;13.20;99.90;;;;;;6252083;28;20451;-57
2022/10/29 03:02:20;;;;;;;14.80;11.37;;;13.20;99.90;;;;;;6251281;28;21094;-60
2022/10/29 03:05:24;;;;;;;12.23;10.80;;;13.20;99.90;;;;;;6247200;28;20487;-58
2022/10/29 03:08:27;;;;;;;18.90;11.97;;;13.20;99.90;;;;;;6251293;28;20483;-60
2022/10/29 03:11:30;;;;;;;19.03;13.03;;;13.10;99.90;;;;;;6251084;28;21027;-59
2022/10/29 03:14:34;;;;;;;23.80;13.13;;;13.00;99.90;;;;;;6251217;28;20475;-59
2022/10/29 03:17:37;;;;;;;26.63;13.17;;;13.10;99.90;;;;;;6250974;28;21023;-58
2022/10/29 03:20:44;;;;;;;14.57;11.67;;;13.10;99.90;;;;;;6251230;28;20474;-57
2022/10/29 03:23:47;;;;;;;14.13;12.30;;;13.10;99.90;;;;;;6251104;28;20463;-57
2022/10/29 03:26:50;;;;;;;18.73;12.53;;;13.10;99.90;;;;;;6250687;28;20482;-59
2022/10/29 03:29:53;;;;;;;13.70;10.63;;;13.10;99.90;;;;;;6250591;28;20471;-59
2022/10/29 03:32:56;;;;;;;15.83;11.00;;;13.00;99.90;;;;;;6250552;28;20820;-59
2022/10/29 03:36:03;;;;;;;18.47;10.87;;;13.00;99.90;;;;;;6250643;28;20483;-57
2022/10/29 03:39:06;;;;;;;18.73;11.00;;;13.00;99.90;;;;;;6250873;28;20475;-57
2022/10/29 03:42:09;;;;;;;13.30;11.90;;;12.90;99.90;;;;;;6250458;28;20478;-60
2022/10/29 03:45:12;;;;;;;14.70;11.00;;;12.90;99.90;;;;;;6244334;28;20483;-59
2022/10/29 03:48:15;;;;;;;14.33;12.33;;;12.80;99.90;;;;;;6225606;28;20488;-61
2022/10/29 03:51:20;;;;;;;12.50;11.23;;;12.80;99.90;;;;;;6225828;28;20476;-60
2022/10/29 03:54:23;;;;;;;15.93;10.40;;;12.80;99.90;;;;;;6225526;28;20852;-60
2022/10/29 03:57:26;;;;;;;17.47;10.73;;;12.80;99.90;;;;;;6225262;28;20492;-60
2022/10/29 04:00:29;;;;;;;13.80;10.10;;;12.80;99.90;;;;;;6225460;28;21027;-61
2022/10/29 04:03:34;;;;;;;13.33;11.50;;;12.60;99.90;;;;;;6225706;28;20995;-61
2022/10/29 04:06:39;;;;;;;12.43;11.23;;;12.60;99.90;;;;;;6224658;28;20837;-59
2022/10/29 04:09:42;;;;;;;12.70;11.20;;;12.60;99.90;;;;;;6225454;28;20534;-60
2022/10/29 04:12:46;;;;;;;11.37;10.33;;;12.70;99.90;;;;;;6225174;28;20480;-59
2022/10/29 04:15:52;;;;;;;11.43;10.43;;;12.70;99.90;;;;;;6225145;28;20977;-59
2022/10/29 04:18:56;;;;;;;13.37;10.57;;;12.70;99.90;;;;;;6225300;28;20484;-59
2022/10/29 04:22:00;;;;;;;12.50;10.50;;;12.70;99.90;;;;;;6225200;28;20468;-60
2022/10/29 04:25:23;;;;;;;11.67;10.43;;;12.80;99.90;;;;;;6224983;28;21001;-58
2022/10/29 04:28:48;;;;;;;13.60;9.47;;;12.80;99.90;;;;;;6224717;28;20627;-58
2022/10/29 04:31:51;;;;;;;12.10;10.77;;;12.70;99.90;;;;;;6224717;28;20479;-56
2022/10/29 04:34:54;;;;;;;11.87;10.67;;;12.70;99.90;;;;;;6224575;28;20530;-60
2022/10/29 04:37:59;;;;;;;11.23;10.23;;;12.70;99.90;;;;;;6224181;28;20468;-60
2022/10/29 04:41:02;;;;;;;14.53;10.37;;;12.60;99.90;;;;;;6224446;28;20448;-58
2022/10/29 04:44:05;;;;;;;14.00;11.70;;;12.70;99.90;;;;;;6225055;28;20447;-57
2022/10/29 04:47:08;;;;;;;10.83;9.73;;;12.70;99.90;;;;;;6245996;28;20490;-57
2022/10/29 04:50:12;;;;;;;12.40;11.10;;;12.60;99.90;;;;;;6249376;28;20520;-57
2022/10/29 04:53:17;;;;;;;16.27;10.67;;;12.60;99.90;;;;;;6249079;28;20479;-57
2022/10/29 04:56:20;;;;;;;14.03;10.77;;;12.60;99.90;;;;;;6249523;28;20508;-57
2022/10/29 04:59:23;;;;;;;13.20;10.80;;;12.60;99.90;;;;;;6248858;28;20517;-59
2022/10/29 05:02:26;;;;;;;11.30;10.20;;;12.60;99.90;;;;;;6250281;28;20467;-59
2022/10/29 05:05:30;;;;;;;16.30;12.07;;;12.60;99.90;;;;;;6250977;28;20474;-59
2022/10/29 05:08:34;;;;;;;12.77;11.03;;;12.50;99.90;;;;;;6249013;28;20467;-59
2022/10/29 05:11:37;;;;;;;12.47;11.27;;;12.50;99.90;;;;;;6249276;28;20478;-59
2022/10/29 05:14:40;;;;;;;13.20;11.90;;;12.50;99.90;;;;;;6248868;28;20840;-59
2022/10/29 05:17:44;;;;;;;16.60;11.17;;;12.50;99.90;;;;;;6245304;28;20474;-59
2022/10/29 05:20:47;;;;;;;10.80;9.70;;;12.50;99.90;;;;;;6253470;28;20478;-59
2022/10/29 05:23:51;;;;;;;13.70;10.73;;;12.50;99.90;;;;;;6253809;28;20475;-57
2022/10/29 05:26:54;;;;;;;13.43;11.73;;;12.50;99.90;;;;;;6253811;28;20486;-59
2022/10/29 05:29:58;;;;;;;14.20;12.80;;;12.50;99.90;;;;;;6254723;28;20471;-58
2022/10/29 05:33:01;;;;;;;18.13;14.10;;;12.50;99.90;;;;;;6253229;28;20789;-57
2022/10/29 05:36:05;;;;;;;19.40;17.17;;;12.50;99.90;;;;;;6253192;28;20474;-58
2022/10/29 05:39:09;;;;;;;16.33;13.87;;;12.40;99.90;;;;;;6252825;28;20489;-57
2022/10/29 05:42:12;;;;;;;15.40;12.33;;;12.40;99.90;;;;;;6253426;28;20485;-58
2022/10/29 05:45:16;;;;;;;19.67;10.73;;;12.50;99.90;;;;;;6247724;28;20479;-59
2022/10/29 05:48:19;;;;;;;22.63;14.53;;;12.50;99.90;;;;;;6228391;28;20484;-59
2022/10/29 05:51:23;;;;;;;16.70;12.40;;;12.50;99.90;;;;;;6228589;28;20541;-58
2022/10/29 05:54:27;;;;;;;14.90;10.57;;;12.50;99.90;;;;;;6228675;28;20482;-58
2022/10/29 05:57:30;;;;;;;12.20;11.00;;;12.50;99.90;;;;;;6229082;28;20476;-58
2022/10/29 06:00:36;;;;;;;12.93;10.10;;;12.60;99.90;;;;;;6228260;28;20598;-58
2022/10/29 06:03:39;;;;;;;18.67;10.97;;;12.50;99.90;;;;;;6227988;28;20479;-58
2022/10/29 06:06:42;;;;;;;16.30;10.27;;;12.60;99.90;;;;;;6228889;28;20985;-58
2022/10/29 06:09:47;;;;;;;18.20;11.77;;;12.60;99.90;;;;;;6228013;28;20578;-58
2022/10/29 06:12:50;;;;;;;12.83;11.03;;;12.50;99.90;;;;;;6228120;28;20480;-58
2022/10/29 06:15:57;;;;;;;24.03;11.37;;;12.60;99.90;;;;;;6227660;28;20496;-58
2022/10/29 06:19:00;;;;;;;10.67;9.60;;;12.60;99.90;;;;;;6228036;28;20476;-60
2022/10/29 06:22:04;;;;;;;11.20;10.00;;;12.60;99.90;;;;;;6227839;28;20487;-60
2022/10/29 06:25:09;;;;;;;14.37;10.60;;;12.60;99.90;;;;;;6228040;28;20476;-60
2022/10/29 06:28:15;;;;;;;13.23;10.43;;;12.60;99.90;;;;;;6227624;28;20541;-60
2022/10/29 06:31:18;;;;;;;31.93;11.17;;;12.60;99.90;;;;;;6227196;28;20476;-60
2022/10/29 06:34:21;;;;;;;17.03;10.90;;;12.70;99.90;;;;;;6227309;28;20468;-60
2022/10/29 06:37:24;;;;;;;17.47;10.63;;;12.70;99.90;;;;;;6226950;28;21076;-59
2022/10/29 06:40:29;;;;;;;17.63;12.30;;;12.60;99.90;;;;;;6226994;28;20468;-60
2022/10/29 06:43:32;;;;;;;15.53;11.70;;;12.60;99.90;;;;;;6227114;28;20474;-57
2022/10/29 06:46:35;;;;;;;15.23;12.50;;;12.70;99.90;;;;;;6243866;28;20479;-58
2022/10/29 06:49:38;;;;;;;16.27;11.47;;;12.90;99.90;;;;;;6251789;28;20995;-60
2022/10/29 06:52:41;;;;;;;14.87;13.27;;;12.90;99.90;;;;;;6251362;28;20839;-60
2022/10/29 06:55:46;;;;;;;11.97;10.87;;;13.00;99.90;;;;;;6251933;28;20486;-61
2022/10/29 06:58:49;;;;;;;11.90;10.80;;;13.10;99.90;;;;;;6251730;28;20999;-61
2022/10/29 07:01:52;;;;;;;16.50;12.60;;;13.10;99.90;;;;;;6251736;28;20479;-58
2022/10/29 07:04:55;;;;;;;13.40;12.10;;;13.10;99.90;;;;;;6251445;28;20545;-58
2022/10/29 07:08:00;;;;;;;13.97;12.80;;;13.20;99.90;;;;;;6251830;28;20486;-59
2022/10/29 07:11:06;;;;;;;12.50;11.30;;;13.20;99.90;;;;;;6255541;28;20454;-59
2022/10/29 07:14:09;;;;;;;17.20;12.17;;;13.30;99.90;;;;;;6250952;28;20995;-58
2022/10/29 07:17:12;;;;;;;13.60;12.30;;;13.40;99.90;;;;;;6251186;28;20556;-59
2022/10/29 07:20:15;;;;;;;18.23;12.60;;;13.50;99.90;;;;;;6250851;28;20908;-60
2022/10/29 07:23:19;;;;;;;14.50;12.23;;;13.60;99.90;;;;;;6251606;28;20470;-59
2022/10/29 07:26:23;;;;;;;13.40;12.00;;;13.50;99.90;;;;;;6252316;28;20467;-59
2022/10/29 07:29:26;;;;;;;32.27;13.90;;;13.60;99.90;;;;;;6251991;28;20574;-60
2022/10/29 07:32:29;;;;;;;13.40;12.00;;;13.40;99.90;;;;;;6227530;28;20934;-60
2022/10/29 07:35:33;;;;;;;14.00;12.60;;;13.40;99.90;;;;;;6225985;28;20968;-59
2022/10/29 07:38:36;;;;;;;14.13;12.23;;;13.40;99.90;;;;;;6225569;28;20579;-60
2022/10/29 07:41:41;;;;;;;12.20;11.00;;;13.60;99.90;;;;;;6222416;28;20469;-62
2022/10/29 07:44:44;;;;;;;12.00;10.73;;;13.90;99.90;;;;;;6210404;28;20934;-60
2022/10/29 07:47:47;;;;;;;12.10;10.83;;;14.20;99.90;;;;;;6250081;28;20541;-59
2022/10/29 07:50:50;;;;;;;12.50;11.07;;;14.40;99.90;;;;;;6250236;28;20478;-59
2022/10/29 07:53:53;;;;;;;12.70;11.50;;;14.50;99.90;;;;;;6250072;28;20479;-59
2022/10/29 07:56:58;;;;;;;12.07;11.00;;;14.60;99.90;;;;;;6249825;28;20490;-57
2022/10/29 08:00:01;;;;;;;19.10;11.87;;;14.70;99.90;;;;;;6250291;28;20467;-58
2022/10/29 08:03:05;;;;;;;13.63;12.30;;;14.80;99.90;;;;;;6249650;28;20475;-59
2022/10/29 08:06:08;;;;;;;13.03;11.73;;;14.80;99.90;;;;;;6250050;28;20505;-58
2022/10/29 08:09:12;;;;;;;12.10;11.00;;;15.00;99.90;;;;;;6250121;28;20501;-58
2022/10/29 08:12:16;;;;;;;12.73;11.37;;;15.30;99.90;;;;;;6250482;28;20485;-58
2022/10/29 08:15:20;;;;;;;10.93;10.03;;;15.50;99.90;;;;;;6236472;28;20855;-61
2022/10/29 08:18:23;;;;;;;11.80;10.70;;;15.70;99.90;;;;;;6200643;28;20473;-58
2022/10/29 08:21:27;;;;;;;11.67;10.57;;;15.90;99.90;;;;;;6201135;28;20487;-57
2022/10/29 08:24:30;;;;;;;12.23;11.20;;;15.90;99.90;;;;;;6200827;28;20472;-57
2022/10/29 08:27:34;;;;;;;12.63;11.53;;;16.00;99.90;;;;;;6200636;28;20495;-60
2022/10/29 08:30:38;;;;;;;12.20;11.20;;;16.40;99.90;;;;;;6199860;28;20477;-57
2022/10/29 08:33:41;;;;;;;12.03;11.03;;;16.90;99.90;;;;;;6200599;28;20550;-60
2022/10/29 08:36:44;;;;;;;13.00;11.73;;;16.90;99.90;;;;;;6199494;28;20496;-60
2022/10/29 08:39:48;;;;;;;12.57;11.47;;;17.30;99.90;;;;;;6200606;28;20487;-59
2022/10/29 08:43:32;;;;;;;12.27;11.13;;;17.80;99.90;;;;;;6200480;28;20480;-58
2022/10/29 08:46:43;;;;;;;11.90;10.73;;;18.30;99.90;;;;;;6234370;28;20586;-58
2022/10/29 08:49:51;;;;;;;12.93;11.67;;;18.20;99.90;;;;;;6249303;28;20228;-57
2022/10/29 08:52:55;;;;;;;13.50;12.10;;;18.70;99.90;;;;;;6252451;28;20232;-61
2022/10/29 08:56:21;;;;;;;11.20;10.40;;;21.00;99.90;;;;;;6254430;28;20329;-59
2022/10/29 08:59:31;;;;;;;11.90;10.90;;;23.50;96.50;;;;;;6254796;28;20239;-59
2022/10/29 09:02:34;;;;;;;12.03;11.07;;;27.00;88.20;;;;;;6254496;28;20227;-61
2022/10/29 09:05:49;;;;;;;11.67;10.77;;;29.70;69.10;;;;;;6254347;28;20243;-60
2022/10/29 09:09:21;;;;;;;12.13;11.03;;;30.70;58.10;;;;;;6254190;28;20802;-62
2022/10/29 09:12:46;;;;;;;13.20;12.20;;;29.10;56.10;;;;;;6238858;28;20231;-60
2022/10/29 09:16:05;;;;;;;12.90;11.90;;;27.10;59.90;;;;;;6214006;28;20225;-60
2022/10/29 09:19:28;;;;;;;13.77;12.77;;;25.20;65.90;;;;;;6213783;28;20224;-60
2022/10/29 09:22:39;;;;;;;11.60;10.73;;;24.00;71.50;;;;;;6200931;28;20859;-61
2022/10/29 09:25:48;;;;;;;12.30;11.30;;;24.90;73.40;;;;;;6204995;28;20240;-61
2022/10/29 09:29:00;;;;;;;12.73;11.63;;;28.30;64.10;;;;;;6205234;28;20576;-61
2022/10/29 09:32:11;;;;;;;11.25;10.30;;;31.60;54.70;;;;;;6205393;28;20213;-62
2022/10/29 09:35:17;;;;;;;10.82;10.00;;;34.10;47.10;;;;;;6205023;28;20213;-61
2022/10/29 09:38:25;;;;;;;10.73;9.93;;;35.90;42.60;;;;;;6205110;28;20234;-61
2022/10/29 09:41:33;;;;;;;9.45;8.85;;;37.80;38.20;;;;;;6204602;28;20236;-61
2022/10/29 09:44:40;;;;;;;10.13;9.43;;;39.10;34.20;;;;;;6197388;28;20242;-61
2022/10/29 09:47:55;;;;;;;9.45;8.85;;;40.20;31.50;;;;;;6253317;28;20241;-61
2022/10/29 09:51:10;;;;;;;9.43;8.82;;;40.60;30.20;;;;;;6253428;28;20322;-62
2022/10/29 09:54:14;;;;;;;9.30;8.70;;;41.70;28.50;;;;;;6249904;28;20294;-62
2022/10/29 09:57:21;;;;;;;10.13;9.23;;;42.30;27.60;;;;;;6212221;28;20305;-62
2022/10/29 10:00:27;;;;;;;8.68;8.00;;;43.00;26.80;;;;;;6212078;28;20245;-62
2022/10/29 10:03:37;;;;;;;8.63;8.02;;;43.80;25.60;;;;;;6208957;28;20217;-62
2022/10/29 10:07:02;;;;;;;7.38;6.75;;;44.00;25.20;;;;;;6203960;28;20239;-62
2022/10/29 10:10:08;;;;;;;7.88;7.38;;;44.40;24.70;;;;;;6222127;28;20225;-61
2022/10/29 10:13:14;;;;;;;7.18;6.75;;;45.00;24.00;;;;;;6228073;28;20246;-65
2022/10/29 10:16:25;;;;;;;7.38;6.70;;;45.40;23.60;;;;;;6228033;28;20246;-62
2022/10/29 10:19:31;;;;;;;7.45;6.68;;;45.90;23.40;;;;;;6227939;28;20247;-62
2022/10/29 10:22:37;;;;;;;7.00;6.50;;;46.50;22.50;;;;;;6227590;28;20243;-62
2022/10/29 10:25:40;;;;;;;7.35;6.60;;;46.90;22.10;;;;;;6227602;28;20529;-62
2022/10/29 10:28:43;;;;;;;7.28;6.68;;;47.20;21.50;;;;;;6227699;28;20231;-63
2022/10/29 10:31:48;;;;;;;6.20;5.70;;;47.00;21.50;;;;;;6227457;28;20381;-63
2022/10/29 10:34:52;;;;;;;6.15;5.65;;;46.40;21.60;;;;;;6227431;28;20230;-63
2022/10/29 10:37:57;;;;;;;6.03;5.63;;;46.40;21.50;;;;;;6227078;28;20304;-63
2022/10/29 10:41:06;;;;;;;6.72;6.07;;;46.60;21.70;;;;;;6227368;28;20232;-63
2022/10/29 10:44:13;;;;;;;5.72;5.18;;;46.90;21.30;;;;;;6227068;28;20224;-63
2022/10/29 10:47:18;;;;;;;6.25;5.72;;;47.00;21.30;;;;;;6226861;28;20240;-63
2022/10/29 10:50:27;;;;;;;9.43;5.13;;;47.30;20.90;;;;;;6226973;28;20239;-63
2022/10/29 10:53:30;;;;;;;5.68;5.18;;;48.10;20.60;;;;;;6226888;28;20591;-63
2022/10/29 10:56:56;;;;;;;6.72;5.95;;;48.80;20.00;;;;;;6227108;28;20255;-62
2022/10/29 11:00:05;;;;;;;9.10;5.10;;;48.80;19.80;;;;;;6227028;28;20232;-62
2022/10/29 11:03:15;;;;;;;5.30;4.90;;;48.40;19.90;;;;;;6228113;28;20233;-63
2022/10/29 11:06:23;;;;;;;5.20;4.75;;;48.30;19.70;;;;;;6229380;28;20236;-63
2022/10/29 11:09:31;;;;;;;5.10;4.57;;;48.10;19.90;;;;;;6227711;28;20251;-62
2022/10/29 11:12:40;;;;;;;6.60;4.95;;;48.60;19.60;;;;;;6226964;28;20228;-63
2022/10/29 11:15:50;;;;;;;5.47;4.97;;;48.20;20.00;;;;;;6225470;28;20256;-63
2022/10/29 11:19:00;;;;;;;4.95;4.55;;;48.40;19.40;;;;;;6226684;28;20225;-62
2022/10/29 11:22:12;;;;;;;8.07;5.32;;;48.80;19.60;;;;;;6227326;28;20588;-63
2022/10/29 11:25:19;;;;;;;6.03;5.53;;;49.50;19.10;;;;;;6227268;28;20669;-63
2022/10/29 11:28:31;;;;;;;5.90;4.97;;;48.40;19.50;;;;;;6231034;28;20232;-62
2022/10/29 11:31:41;;;;;;;7.38;5.50;;;47.60;20.10;;;;;;6227424;28;20232;-62
2022/10/29 11:34:51;;;;;;;6.68;5.40;;;48.10;19.90;;;;;;6226083;28;20587;-63
2022/10/29 11:38:01;;;;;;;4.95;4.45;;;47.50;19.60;;;;;;6226151;28;20236;-61
2022/10/29 11:41:12;;;;;;;6.82;5.60;;;46.90;19.90;;;;;;6225476;28;20518;-62
2022/10/29 11:44:19;;;;;;;7.30;5.90;;;46.20;20.30;;;;;;6225867;28;20258;-60
2022/10/29 11:47:37;;;;;;;10.00;6.57;;;46.80;20.20;;;;;;6248987;28;20246;-61
2022/10/29 11:50:48;;;;;;;5.32;4.60;;;47.90;19.50;;;;;;6240939;28;20687;-61
2022/10/29 11:54:01;;;;;;;5.13;4.63;;;48.60;19.20;;;;;;6212431;28;20686;-61
2022/10/29 11:57:10;;;;;;;4.70;4.30;;;49.00;18.60;;;;;;6218681;28;20306;-60
2022/10/29 12:00:15;;;;;;;5.13;4.72;;;48.80;18.60;;;;;;6219740;28;20703;-62
2022/10/29 12:03:34;;;;;;;8.13;4.43;;;48.70;18.40;;;;;;6212773;28;20236;-61
2022/10/29 12:06:42;;;;;;;5.10;4.63;;;49.40;18.30;;;;;;6200889;28;20233;-61
2022/10/29 12:10:02;;;;;;;6.18;5.40;;;49.90;17.70;;;;;;6205435;28;20322;-61
2022/10/29 12:13:14;;;;;;;5.38;4.88;;;49.80;17.70;;;;;;6225278;28;20265;-61
2022/10/29 12:16:27;;;;;;;9.13;4.90;;;49.50;17.80;;;;;;6224928;28;20670;-61
2022/10/29 12:19:41;;;;;;;7.20;5.30;;;49.60;17.90;;;;;;6217879;28;20249;-61
2022/10/29 12:22:49;;;;;;;4.82;4.43;;;49.80;17.60;;;;;;6225360;28;20232;-61
2022/10/29 12:26:04;;;;;;;6.43;4.85;;;48.80;18.10;;;;;;6225033;28;20235;-63
2022/10/29 12:29:14;;;;;;;5.95;4.57;;;49.00;18.20;;;;;;6217027;28;20217;-61
2022/10/29 12:32:24;;;;;;;7.32;4.72;;;48.90;18.40;;;;;;6216297;28;20258;-61
2022/10/29 12:35:33;;;;;;;14.88;5.57;;;48.80;18.60;;;;;;6210904;28;20243;-62
2022/10/29 12:38:40;;;;;;;4.35;3.95;;;49.00;18.40;;;;;;6224690;28;20250;-61
2022/10/29 12:41:48;;;;;;;5.25;4.72;;;47.60;19.00;;;;;;6225507;28;20232;-61
2022/10/29 12:45:12;;;;;;;7.90;5.30;;;47.10;19.40;;;;;;6227745;28;20605;-61
2022/10/29 12:48:20;;;;;;;6.60;4.85;;;47.10;19.40;;;;;;6249010;28;20297;-61
2022/10/29 12:51:32;;;;;;;7.80;4.90;;;46.90;19.90;;;;;;6216480;28;20239;-61
2022/10/29 12:54:38;;;;;;;6.75;4.45;;;47.30;19.70;;;;;;6200425;28;20243;-59
2022/10/29 12:57:43;;;;;;;5.30;4.50;;;47.60;19.20;;;;;;6189342;28;20232;-60
2022/10/29 13:00:47;;;;;;;6.45;4.75;;;47.90;19.20;;;;;;6207312;28;20284;-61
2022/10/29 13:04:02;;;;;;;7.03;4.50;;;48.40;18.90;;;;;;6200207;28;20241;-61
2022/10/29 13:07:21;;;;;;;7.43;5.28;;;48.40;18.70;;;;;;6200302;28;20229;-60
2022/10/29 13:10:48;;;;;;;4.85;4.10;;;48.20;18.90;;;;;;6200310;28;20383;-60
2022/10/29 13:13:59;;;;;;;6.18;4.63;;;47.30;19.10;;;;;;6200588;28;20323;-60
2022/10/29 13:17:05;;;;;;;5.90;5.20;;;45.10;20.30;;;;;;6200073;28;20242;-61
2022/10/29 13:20:24;;;;;;;8.05;5.40;;;42.80;22.20;;;;;;6200285;28;20227;-61
2022/10/29 13:23:36;;;;;;;6.22;4.63;;;39.90;24.50;;;;;;6200142;28;20237;-62
2022/10/29 13:27:00;;;;;;;7.13;4.88;;;37.50;26.80;;;;;;6200533;28;20271;-60
2022/10/29 13:30:22;;;;;;;6.22;4.80;;;35.50;29.20;;;;;;6200175;28;20703;-60
2022/10/29 13:33:51;;;;;;;6.35;5.05;;;33.70;31.40;;;;;;6200009;28;20245;-60
2022/10/29 13:37:14;;;;;;;5.68;5.07;;;32.20;33.80;;;;;;6200145;28;20558;-61
2022/10/29 13:40:55;;;;;;;9.20;5.80;;;31.10;36.00;;;;;;6203210;28;20536;-60
2022/10/29 13:44:01;;;;;;;6.70;4.83;;;29.90;38.20;;;;;;6204587;28;20601;-60
2022/10/29 13:47:19;;;;;;;5.83;5.20;;;29.00;40.30;;;;;;6245626;28;20231;-60
2022/10/29 13:50:23;;;;;;;7.10;5.20;;;28.20;41.90;;;;;;6253453;28;20203;-61
2022/10/29 13:53:31;;;;;;;10.57;6.67;;;27.50;43.40;;;;;;6252652;28;20604;-60
2022/10/29 13:56:41;;;;;;;7.20;5.03;;;26.90;44.70;;;;;;6249278;28;20247;-61
2022/10/29 13:59:49;;;;;;;5.57;5.00;;;26.50;46.10;;;;;;6207104;28;20229;-61
2022/10/29 14:02:58;;;;;;;7.50;5.57;;;25.90;47.40;;;;;;6229157;28;20561;-62
2022/10/29 14:06:06;;;;;;;7.70;5.03;;;25.60;48.60;;;;;;6228605;28;20575;-60
2022/10/29 14:09:21;;;;;;;7.80;5.87;;;25.40;49.30;;;;;;6228233;28;20315;-59
2022/10/29 14:12:29;;;;;;;10.43;5.33;;;25.20;50.00;;;;;;6228121;28;20239;-60
2022/10/29 14:15:33;;;;;;;5.33;4.83;;;24.90;50.80;;;;;;6228071;28;20228;-60
2022/10/29 14:18:39;;;;;;;8.60;7.33;;;24.80;51.50;;;;;;6227832;28;20236;-60
2022/10/29 14:21:42;;;;;;;9.03;7.97;;;24.50;52.50;;;;;;6227299;28;20267;-60
2022/10/29 14:24:46;;;;;;;8.60;7.80;;;24.30;53.10;;;;;;6227663;28;20671;-60
2022/10/29 14:28:09;;;;;;;7.00;5.90;;;24.10;53.70;;;;;;6227501;28;20247;-60
2022/10/29 14:31:14;;;;;;;9.70;6.20;;;23.80;54.60;;;;;;6227586;28;20538;-59
2022/10/29 14:34:26;;;;;;;6.93;4.80;;;23.60;55.40;;;;;;6227083;28;20309;-59
2022/10/29 14:37:33;;;;;;;7.50;6.10;;;23.40;55.80;;;;;;6226938;28;20726;-59
2022/10/29 14:40:37;;;;;;;8.97;6.90;;;23.20;56.60;;;;;;6228305;28;20228;-60
2022/10/29 14:43:40;;;;;;;12.37;11.10;;;23.10;57.00;;;;;;6227073;28;20237;-61
2022/10/29 14:46:51;;;;;;;6.43;5.87;;;23.10;57.40;;;;;;6244695;28;20236;-61
2022/10/29 14:49:57;;;;;;;6.50;5.80;;;23.00;58.30;;;;;;6251078;28;20236;-60
2022/10/29 14:53:03;;;;;;;6.73;6.10;;;22.90;58.60;;;;;;6251588;28;20236;-60
2022/10/29 14:56:11;;;;;;;8.07;5.23;;;22.90;58.80;;;;;;6251223;28;20535;-59
2022/10/29 14:59:19;;;;;;;6.40;5.63;;;22.90;60.00;;;;;;6251801;28;20192;-59
2022/10/29 15:02:34;;;;;;;8.27;4.93;;;22.80;60.70;;;;;;6246533;28;20240;-60
2022/10/29 15:05:42;;;;;;;10.60;5.93;;;22.70;60.80;;;;;;6251699;28;20298;-60
2022/10/29 15:08:46;;;;;;;7.13;6.40;;;22.60;61.30;;;;;;6251348;28;20685;-60
2022/10/29 15:11:59;;;;;;;9.10;6.50;;;22.60;62.40;;;;;;6250985;28;20236;-60
2022/10/29 15:15:08;;;;;;;9.00;6.27;;;22.40;63.60;;;;;;6251026;28;20297;-59
2022/10/29 15:18:19;;;;;;;8.40;5.83;;;22.30;65.10;;;;;;6250239;28;20559;-59
2022/10/29 15:21:26;;;;;;;9.77;6.23;;;22.20;65.90;;;;;;6250876;28;20792;-59
2022/10/29 15:24:29;;;;;;;8.33;5.80;;;22.20;67.50;;;;;;6250205;28;20888;-59
2022/10/29 15:27:35;;;;;;;6.30;5.57;;;22.10;68.60;;;;;;6251204;28;20228;-60
2022/10/29 15:30:40;;;;;;;6.53;5.97;;;22.00;69.70;;;;;;6251232;28;20228;-60
2022/10/29 15:33:43;;;;;;;8.93;6.10;;;21.90;70.60;;;;;;6250215;28;20537;-60
2022/10/29 15:36:49;;;;;;;6.07;5.33;;;21.80;71.90;;;;;;6249817;28;20240;-60
2022/10/29 15:40:05;;;;;;;9.57;5.90;;;21.60;74.00;;;;;;6250340;28;20240;-60
2022/10/29 15:43:27;;;;;;;7.23;6.53;;;21.40;76.20;;;;;;6250420;28;20236;-60
2022/10/29 15:46:34;;;;;;;6.47;5.83;;;21.20;80.80;;;;;;6233973;28;20245;-59
2022/10/29 15:49:37;;;;;;;9.40;5.77;;;21.00;83.90;;;;;;6225934;28;20237;-63
2022/10/29 15:52:44;;;;;;;9.83;6.40;;;20.80;86.90;;;;;;6225852;28;20239;-59
2022/10/29 15:55:52;;;;;;;7.20;6.50;;;20.70;88.80;;;;;;6225641;28;20233;-58
2022/10/29 15:58:55;;;;;;;6.70;6.10;;;20.60;90.70;;;;;;6225543;28;20228;-59
2022/10/29 16:01:58;;;;;;;9.27;6.77;;;20.60;91.30;;;;;;6224975;28;20237;-60